Sankoumaru 31 — JD2200 — position and weather

sailwx.info

Track history (hours):
 
Tides and Currents Weather Stations Pressure Air Temp Water Temp Dewpoint Dewpoint Depression Visibility Wind Speed Wind Dir Waves Ship Positions

Sankoumaru 31

Last reported at 2017-Apr-27 04:58 UTC. Time now 2017-Apr-28 06:26 UTC.
Position N 35°40' E 139°57'.

Length 75 m; draft 5 m.

Type: Cargo ship. MMSI: 431501842.

Date/timePositionNaut miles runAvg speedWind from/ knotsBaromVisibWave heightAir tempDewpointWater temp
2017-Apr-27 04:58N 35°40' E 139°57'3 4.8
2017-Apr-27 04:18N 35°37' E 139°58'310.9
2017-Apr-27 04:00N 35°34' E 139°56'611.6
2017-Apr-27 03:30N 35°30' E 139°52'611.3
2017-Apr-27 03:00N 35°25' E 139°48'611.1
2017-Apr-27 02:30N 35°20' E 139°45'611.1
2017-Apr-27 02:00N 35°15' E 139°47'510.3
2017-Apr-27 01:30N 35°10' E 139°45'510.8
2017-Apr-27 00:59N 35°06' E 139°41'  
2017-Apr-23 20:05N 34°35' E 134°52'115.7
2017-Apr-23 20:00N 34°35' E 134°53'714.1
2017-Apr-23 19:30N 34°37' E 135°02'612.7
2017-Apr-23 19:00N 34°36' E 135°09'713.5
2017-Apr-23 18:30N 34°37' E 135°17'612.9
2017-Apr-23 18:00N 34°39' E 135°25'2 4.5
2017-Apr-23 17:30N 34°38' E 135°27'0 0.0
2017-Apr-23 17:00N 34°38' E 135°27'0 0.0
2017-Apr-23 16:30N 34°38' E 135°27'0 0.0
2017-Apr-23 15:18N 34°38' E 135°27'0 0.0
2017-Apr-23 15:00N 34°38' E 135°27'0 0.0
2017-Apr-23 14:00N 34°38' E 135°27'0 0.0
2017-Apr-23 13:30N 34°38' E 135°27'0 0.0
2017-Apr-23 13:00N 34°38' E 135°27'0 0.0
2017-Apr-23 12:30N 34°38' E 135°27'0 0.0
2017-Apr-23 12:00N 34°38' E 135°27'0 0.7
2017-Apr-23 11:30N 34°38' E 135°27'1 0.2
2017-Apr-23 09:05N 34°38' E 135°27'0 0.0
2017-Apr-23 08:59N 34°38' E 135°27'0 0.0
2017-Apr-23 08:05N 34°38' E 135°27'0 0.0
2017-Apr-23 07:59N 34°38' E 135°27'0 0.0
2017-Apr-23 07:17N 34°38' E 135°27'0 0.0
2017-Apr-23 06:59N 34°38' E 135°27'0 0.0
2017-Apr-23 06:23N 34°38' E 135°27'0 0.0
2017-Apr-23 05:59N 34°38' E 135°27'0 0.0
2017-Apr-23 05:29N 34°38' E 135°27'0 0.0
2017-Apr-23 04:59N 34°38' E 135°27'0 0.0
2017-Apr-23 04:17N 34°38' E 135°27'0 0.0
2017-Apr-23 03:59N 34°38' E 135°27'0 0.0
2017-Apr-23 03:17N 34°38' E 135°27'0 0.1
2017-Apr-23 02:59N 34°38' E 135°27'0 0.0
2017-Apr-23 02:23N 34°38' E 135°27'0 0.1
2017-Apr-23 01:53N 34°38' E 135°27'0 0.1
2017-Apr-23 01:29N 34°38' E 135°27'0 0.0
2017-Apr-23 00:53N 34°38' E 135°27'0 0.0
2017-Apr-23 00:29N 34°38' E 135°27'0 0.0
2017-Apr-22 23:53N 34°38' E 135°27'0 0.0
2017-Apr-22 23:29N 34°38' E 135°27'0 0.0
2017-Apr-22 22:47N 34°38' E 135°27'0 0.1
2017-Apr-22 22:23N 34°38' E 135°27'0 0.0
2017-Apr-22 21:59N 34°38' E 135°27'0 0.0
2017-Apr-22 21:29N 34°38' E 135°27'0 0.1
2017-Apr-22 20:59N 34°38' E 135°27'0 0.0
2017-Apr-22 20:29N 34°38' E 135°27'0 0.1
2017-Apr-22 19:53N 34°38' E 135°27'0 0.1
2017-Apr-22 19:23N 34°38' E 135°27'1 1.3
2017-Apr-22 19:00N 34°39' E 135°26'4 9.1
2017-Apr-22 18:30N 34°37' E 135°21'611.6
2017-Apr-22 18:00N 34°32' E 135°17'611.3
2017-Apr-22 17:30N 34°28' E 135°12'1910.9
2017-Apr-22 15:44N 34°10' E 135°02'219 9.3
2017-Apr-21 16:09N 34°55' E 139°23'210.6
2017-Apr-21 15:59N 34°56' E 139°25'510.8
2017-Apr-21 15:30N 34°59' E 139°30'611.0
2017-Apr-21 15:00N 35°03' E 139°35'611.5
2017-Apr-21 14:30N 35°07' E 139°40'1110.5
2017-Apr-21 13:30N 35°16' E 139°45'611.3
2017-Apr-21 13:00N 35°21' E 139°43'5 9.6
2017-Apr-21 12:30N 35°25' E 139°46'710.4
2017-Apr-21 11:51N 35°22' E 139°53'0 0.3
2017-Apr-21 11:30N 35°22' E 139°53'0 0.0
2017-Apr-20 21:54N 35°22' E 139°53'0 0.3
2017-Apr-20 20:15N 35°22' E 139°53'0 0.0
2017-Apr-20 15:15N 35°22' E 139°53'0 0.0
2017-Apr-20 12:27N 35°22' E 139°53'0 0.0
2017-Apr-20 07:36N 35°22' E 139°53'0 1.7
2017-Apr-20 07:30N 35°22' E 139°53'611.2
2017-Apr-20 07:01N 35°27' E 139°50'711.9
2017-Apr-20 06:26N 35°33' E 139°54'7 2.2
2017-Apr-20 03:09N 35°40' E 139°57'7 0.4
2017-Apr-19 08:18N 35°33' E 140°01'311.0
2017-Apr-19 08:00N 35°32' E 139°57'611.2
2017-Apr-19 07:30N 35°28' E 139°52'611.2
2017-Apr-19 07:01N 35°25' E 139°47'611.5
2017-Apr-19 06:31N 35°19' E 139°44'510.3
2017-Apr-19 06:00N 35°15' E 139°47'611.2
2017-Apr-19 05:30N 35°09' E 139°46'611.3
2017-Apr-19 05:00N 35°04' E 139°43'711.8
2017-Apr-19 04:26N 34°60' E 139°36'  
Track history (hours):
 
Tides and Currents Weather Stations Pressure Air Temp Water Temp Dewpoint Dewpoint Depression Visibility Wind Speed Wind Dir Waves Ship Positions

Sankoumaru 31

Last reported at 2017-Apr-27 04:58 UTC. Time now 2017-Apr-28 06:26 UTC.
Position N 35°40' E 139°57'.

Length 75 m; draft 5 m.

Type: Cargo ship. MMSI: 431501842.

Date/timePositionNaut miles runAvg speedWind from/ knotsBaromVisibWave heightAir tempDewpointWater temp
2017-Apr-27 04:58N 35°40' E 139°57'3 4.8
2017-Apr-27 04:18N 35°37' E 139°58'310.9
2017-Apr-27 04:00N 35°34' E 139°56'611.6
2017-Apr-27 03:30N 35°30' E 139°52'611.3
2017-Apr-27 03:00N 35°25' E 139°48'611.1
2017-Apr-27 02:30N 35°20' E 139°45'611.1
2017-Apr-27 02:00N 35°15' E 139°47'510.3
2017-Apr-27 01:30N 35°10' E 139°45'510.8
2017-Apr-27 00:59N 35°06' E 139°41'  
2017-Apr-23 20:05N 34°35' E 134°52'115.7
2017-Apr-23 20:00N 34°35' E 134°53'714.1
2017-Apr-23 19:30N 34°37' E 135°02'612.7
2017-Apr-23 19:00N 34°36' E 135°09'713.5
2017-Apr-23 18:30N 34°37' E 135°17'612.9
2017-Apr-23 18:00N 34°39' E 135°25'2 4.5
2017-Apr-23 17:30N 34°38' E 135°27'0 0.0
2017-Apr-23 17:00N 34°38' E 135°27'0 0.0
2017-Apr-23 16:30N 34°38' E 135°27'0 0.0
2017-Apr-23 15:18N 34°38' E 135°27'0 0.0
2017-Apr-23 15:00N 34°38' E 135°27'0 0.0
2017-Apr-23 14:00N 34°38' E 135°27'0 0.0
2017-Apr-23 13:30N 34°38' E 135°27'0 0.0
2017-Apr-23 13:00N 34°38' E 135°27'0 0.0
2017-Apr-23 12:30N 34°38' E 135°27'0 0.0
2017-Apr-23 12:00N 34°38' E 135°27'0 0.7
2017-Apr-23 11:30N 34°38' E 135°27'1 0.2
2017-Apr-23 09:05N 34°38' E 135°27'0 0.0
2017-Apr-23 08:59N 34°38' E 135°27'0 0.0
2017-Apr-23 08:05N 34°38' E 135°27'0 0.0
2017-Apr-23 07:59N 34°38' E 135°27'0 0.0
2017-Apr-23 07:17N 34°38' E 135°27'0 0.0
2017-Apr-23 06:59N 34°38' E 135°27'0 0.0
2017-Apr-23 06:23N 34°38' E 135°27'0 0.0
2017-Apr-23 05:59N 34°38' E 135°27'0 0.0
2017-Apr-23 05:29N 34°38' E 135°27'0 0.0
2017-Apr-23 04:59N 34°38' E 135°27'0 0.0
2017-Apr-23 04:17N 34°38' E 135°27'0 0.0
2017-Apr-23 03:59N 34°38' E 135°27'0 0.0
2017-Apr-23 03:17N 34°38' E 135°27'0 0.1
2017-Apr-23 02:59N 34°38' E 135°27'0 0.0
2017-Apr-23 02:23N 34°38' E 135°27'0 0.1
2017-Apr-23 01:53N 34°38' E 135°27'0 0.1
2017-Apr-23 01:29N 34°38' E 135°27'0 0.0
2017-Apr-23 00:53N 34°38' E 135°27'0 0.0
2017-Apr-23 00:29N 34°38' E 135°27'0 0.0
2017-Apr-22 23:53N 34°38' E 135°27'0 0.0
2017-Apr-22 23:29N 34°38' E 135°27'0 0.0
2017-Apr-22 22:47N 34°38' E 135°27'0 0.1
2017-Apr-22 22:23N 34°38' E 135°27'0 0.0
2017-Apr-22 21:59N 34°38' E 135°27'0 0.0
2017-Apr-22 21:29N 34°38' E 135°27'0 0.1
2017-Apr-22 20:59N 34°38' E 135°27'0 0.0
2017-Apr-22 20:29N 34°38' E 135°27'0 0.1
2017-Apr-22 19:53N 34°38' E 135°27'0 0.1
2017-Apr-22 19:23N 34°38' E 135°27'1 1.3
2017-Apr-22 19:00N 34°39' E 135°26'4 9.1
2017-Apr-22 18:30N 34°37' E 135°21'611.6
2017-Apr-22 18:00N 34°32' E 135°17'611.3
2017-Apr-22 17:30N 34°28' E 135°12'1910.9
2017-Apr-22 15:44N 34°10' E 135°02'219 9.3
2017-Apr-21 16:09N 34°55' E 139°23'210.6
2017-Apr-21 15:59N 34°56' E 139°25'510.8
2017-Apr-21 15:30N 34°59' E 139°30'611.0
2017-Apr-21 15:00N 35°03' E 139°35'611.5
2017-Apr-21 14:30N 35°07' E 139°40'1110.5
2017-Apr-21 13:30N 35°16' E 139°45'611.3
2017-Apr-21 13:00N 35°21' E 139°43'5 9.6
2017-Apr-21 12:30N 35°25' E 139°46'710.4
2017-Apr-21 11:51N 35°22' E 139°53'0 0.3
2017-Apr-21 11:30N 35°22' E 139°53'0 0.0
2017-Apr-20 21:54N 35°22' E 139°53'0 0.3
2017-Apr-20 20:15N 35°22' E 139°53'0 0.0
2017-Apr-20 15:15N 35°22' E 139°53'0 0.0
2017-Apr-20 12:27N 35°22' E 139°53'0 0.0
2017-Apr-20 07:36N 35°22' E 139°53'0 1.7
2017-Apr-20 07:30N 35°22' E 139°53'611.2
2017-Apr-20 07:01N 35°27' E 139°50'711.9
2017-Apr-20 06:26N 35°33' E 139°54'7 2.2
2017-Apr-20 03:09N 35°40' E 139°57'7 0.4
2017-Apr-19 08:18N 35°33' E 140°01'311.0
2017-Apr-19 08:00N 35°32' E 139°57'611.2
2017-Apr-19 07:30N 35°28' E 139°52'611.2
2017-Apr-19 07:01N 35°25' E 139°47'611.5
2017-Apr-19 06:31N 35°19' E 139°44'510.3
2017-Apr-19 06:00N 35°15' E 139°47'611.2
2017-Apr-19 05:30N 35°09' E 139°46'611.3
2017-Apr-19 05:00N 35°04' E 139°43'711.8
2017-Apr-19 04:26N 34°60' E 139°36'  

Dump ship's entire track history